Time;durP1;ratioP1;P1;durP2;ratioP2;P2;SDS_P1;SDS_P2;PMS_P1;PMS_P2;Temp;Humidity;BMP_temperature;BMP_pressure;BME280_temperature;BME280_humidity;BME280_pressure;Samples;Min_cycle;Max_cycle;Signal;HPM_P1;HPM_P2
2021/01/07 00:00:47;;;;;;;13.93;9.97;;;3.30;99.90;;;;;;5030926;28;20183;-66
2021/01/07 00:03:12;;;;;;;13.70;10.27;;;3.30;99.90;;;;;;5032935;28;20230;-67
2021/01/07 00:05:38;;;;;;;14.13;10.33;;;3.30;99.90;;;;;;5032791;28;20180;-67
2021/01/07 00:08:04;;;;;;;15.83;9.70;;;3.30;99.90;;;;;;5034278;28;20542;-66
2021/01/07 00:10:30;;;;;;;15.57;10.80;;;3.20;99.90;;;;;;5033797;28;20176;-65
2021/01/07 00:12:55;;;;;;;12.17;9.57;;;3.30;99.90;;;;;;5034082;28;20430;-65
2021/01/07 00:15:21;;;;;;;13.40;9.97;;;3.30;99.90;;;;;;5034219;28;20215;-68
2021/01/07 00:17:46;;;;;;;17.30;10.67;;;3.30;99.90;;;;;;5033862;28;20650;-67
2021/01/07 00:20:13;;;;;;;16.27;10.63;;;3.30;99.90;;;;;;5034065;28;20172;-68
2021/01/07 00:22:39;;;;;;;12.70;9.70;;;3.30;99.90;;;;;;5033666;28;20701;-66
2021/01/07 00:25:06;;;;;;;13.00;9.87;;;3.40;99.90;;;;;;5034078;28;20426;-67
2021/01/07 00:27:32;;;;;;;13.03;9.33;;;3.40;99.90;;;;;;5033755;28;20697;-67
2021/01/07 00:29:57;;;;;;;13.80;10.17;;;3.40;99.90;;;;;;5033834;28;20422;-68
2021/01/07 00:32:23;;;;;;;13.53;10.23;;;3.40;99.90;;;;;;5033795;28;20458;-66
2021/01/07 00:34:49;;;;;;;15.20;10.03;;;3.40;99.90;;;;;;5053719;28;20225;-67
2021/01/07 00:37:15;;;;;;;13.33;10.20;;;3.40;99.90;;;;;;5053801;28;20258;-67
2021/01/07 00:39:41;;;;;;;14.73;11.13;;;3.40;99.90;;;;;;5053469;28;20206;-66
2021/01/07 00:42:06;;;;;;;13.67;10.20;;;3.40;99.90;;;;;;5053578;28;20468;-65
2021/01/07 00:44:32;;;;;;;14.40;10.47;;;3.40;99.90;;;;;;5054169;28;20183;-66
2021/01/07 00:46:57;;;;;;;16.90;11.77;;;3.30;99.90;;;;;;5053295;28;20645;-66
2021/01/07 00:49:23;;;;;;;14.70;11.00;;;3.30;99.90;;;;;;5053548;28;20566;-67
2021/01/07 00:51:49;;;;;;;14.07;10.23;;;3.30;99.90;;;;;;5053540;28;20278;-68
2021/01/07 00:54:15;;;;;;;14.70;11.00;;;3.30;99.90;;;;;;5051943;28;20183;-65
2021/01/07 00:56:41;;;;;;;16.53;10.97;;;3.30;99.90;;;;;;5053475;28;20202;-67
2021/01/07 00:59:07;;;;;;;12.97;10.20;;;3.30;99.90;;;;;;5053299;28;20761;-65
2021/01/07 01:01:41;;;;;;;14.43;10.40;;;3.30;99.90;;;;;;5053069;28;20607;-65
2021/01/07 01:04:07;;;;;;;14.87;10.57;;;3.20;99.90;;;;;;5053196;28;20423;-67
2021/01/07 01:06:32;;;;;;;16.13;10.63;;;3.30;99.90;;;;;;5052982;28;20912;-68
2021/01/07 01:08:58;;;;;;;14.87;10.83;;;3.30;99.90;;;;;;5053248;28;20183;-66
2021/01/07 01:11:24;;;;;;;14.23;10.60;;;3.20;99.90;;;;;;5053101;28;20656;-67
2021/01/07 01:13:50;;;;;;;14.77;10.47;;;3.20;99.90;;;;;;5051988;28;20290;-68
2021/01/07 01:16:15;;;;;;;14.27;10.53;;;3.10;99.90;;;;;;5052723;28;20207;-66
2021/01/07 01:18:41;;;;;;;15.93;11.00;;;3.20;99.90;;;;;;5052556;28;20262;-66
2021/01/07 01:21:07;;;;;;;15.17;10.53;;;3.10;99.90;;;;;;5052868;28;20285;-66
2021/01/07 01:23:32;;;;;;;14.17;10.37;;;3.20;99.90;;;;;;5052640;28;20551;-66
2021/01/07 01:25:58;;;;;;;14.77;10.40;;;3.30;99.90;;;;;;5052309;28;20211;-68
2021/01/07 01:28:23;;;;;;;13.90;10.57;;;3.20;99.90;;;;;;5052729;28;20586;-67
2021/01/07 01:30:49;;;;;;;12.73;9.57;;;3.30;99.90;;;;;;5052206;28;20190;-66
2021/01/07 01:33:14;;;;;;;13.43;10.10;;;3.30;99.90;;;;;;5052608;28;20175;-67
2021/01/07 01:35:40;;;;;;;16.60;10.57;;;3.30;99.90;;;;;;5052488;28;20205;-66
2021/01/07 01:38:05;;;;;;;14.73;10.80;;;3.30;99.90;;;;;;5052125;28;20225;-66
2021/01/07 01:40:32;;;;;;;14.73;9.93;;;3.40;99.90;;;;;;5052386;28;20713;-66
2021/01/07 01:42:58;;;;;;;13.83;9.53;;;3.40;99.90;;;;;;5052253;28;20189;-67
2021/01/07 01:45:24;;;;;;;15.77;9.67;;;3.40;99.90;;;;;;5052426;28;20426;-66
2021/01/07 01:47:49;;;;;;;16.00;11.27;;;3.50;99.90;;;;;;5052568;28;20222;-68
2021/01/07 01:50:15;;;;;;;15.80;10.90;;;3.40;99.90;;;;;;5052170;28;20215;-66
2021/01/07 01:52:41;;;;;;;14.20;10.27;;;3.40;99.90;;;;;;5052424;28;20171;-66
2021/01/07 01:55:07;;;;;;;13.90;10.47;;;3.50;99.90;;;;;;5052160;28;20223;-68
2021/01/07 01:57:33;;;;;;;15.57;10.33;;;3.50;99.90;;;;;;5052109;28;20175;-68
2021/01/07 01:59:59;;;;;;;13.20;10.07;;;3.50;99.90;;;;;;5052283;28;20950;-67
2021/01/07 02:02:24;;;;;;;13.93;10.83;;;3.40;99.90;;;;;;5051971;28;20214;-66
2021/01/07 02:04:50;;;;;;;14.73;10.83;;;3.50;99.90;;;;;;5052100;28;20175;-65
2021/01/07 02:07:22;;;;;;;13.37;10.20;;;3.60;99.90;;;;;;5051773;28;20518;-67
2021/01/07 02:09:48;;;;;;;13.80;10.00;;;3.50;99.90;;;;;;5051954;28;20595;-65
2021/01/07 02:12:15;;;;;;;16.57;10.63;;;3.40;99.90;;;;;;5051680;28;20401;-67
2021/01/07 02:14:46;;;;;;;16.60;10.47;;;3.40;99.90;;;;;;5038924;28;20450;-68
2021/01/07 02:17:12;;;;;;;14.90;10.80;;;3.40;99.90;;;;;;5014107;28;20810;-66
2021/01/07 02:19:38;;;;;;;16.97;10.67;;;3.30;99.90;;;;;;5031482;28;20415;-66
2021/01/07 02:22:05;;;;;;;12.80;9.27;;;3.20;99.90;;;;;;5031787;28;20419;-66
2021/01/07 02:24:32;;;;;;;15.43;11.00;;;3.20;99.90;;;;;;5031226;28;20234;-66
2021/01/07 02:27:05;;;;;;;15.67;10.60;;;3.20;99.90;;;;;;5031556;28;20515;-67
2021/01/07 02:29:31;;;;;;;17.67;11.47;;;3.20;99.90;;;;;;5031783;28;20418;-66
2021/01/07 02:31:57;;;;;;;16.93;11.70;;;3.20;99.90;;;;;;5031517;28;20772;-67
2021/01/07 02:34:22;;;;;;;16.83;12.23;;;3.20;99.90;;;;;;5031829;28;20180;-66
2021/01/07 02:36:48;;;;;;;18.20;11.67;;;3.20;99.90;;;;;;5031373;28;20289;-67
2021/01/07 02:39:14;;;;;;;16.67;11.60;;;3.30;99.90;;;;;;5051294;28;20185;-68
2021/01/07 02:41:50;;;;;;;19.07;12.00;;;3.30;99.90;;;;;;5051274;28;20422;-67
2021/01/07 02:44:16;;;;;;;18.80;12.67;;;3.20;99.90;;;;;;5033642;28;20252;-66
2021/01/07 02:46:41;;;;;;;18.87;12.50;;;3.20;99.90;;;;;;5051068;28;20413;-66
2021/01/07 02:49:07;;;;;;;18.63;12.30;;;3.30;99.90;;;;;;5033261;28;20214;-68
2021/01/07 02:51:32;;;;;;;19.63;14.00;;;3.30;99.90;;;;;;5051161;28;20608;-66
2021/01/07 02:54:00;;;;;;;18.53;13.17;;;3.20;99.90;;;;;;5050919;28;20236;-67
2021/01/07 02:56:25;;;;;;;17.80;11.77;;;3.20;99.90;;;;;;5050904;28;20198;-65
2021/01/07 02:58:51;;;;;;;17.53;11.93;;;3.30;99.90;;;;;;5050869;28;20426;-66
2021/01/07 03:01:16;;;;;;;18.57;13.10;;;3.20;99.90;;;;;;5050888;28;20258;-67
2021/01/07 03:03:42;;;;;;;21.57;13.47;;;3.20;99.90;;;;;;5050835;28;20629;-66
2021/01/07 03:06:08;;;;;;;21.90;14.10;;;3.20;99.90;;;;;;5032801;28;20218;-67
2021/01/07 03:08:33;;;;;;;24.07;14.30;;;3.20;99.90;;;;;;5050662;28;20171;-67
2021/01/07 03:10:59;;;;;;;20.20;12.67;;;3.20;99.90;;;;;;5050770;28;20190;-66
2021/01/07 03:13:24;;;;;;;22.03;14.03;;;3.20;99.90;;;;;;5049273;28;20554;-67
2021/01/07 03:15:50;;;;;;;21.73;14.80;;;3.10;99.90;;;;;;5032532;28;20607;-66
2021/01/07 03:18:15;;;;;;;23.33;15.43;;;3.00;99.90;;;;;;5050762;28;20192;-67
2021/01/07 03:20:41;;;;;;;22.27;13.87;;;3.00;99.90;;;;;;5050663;28;20526;-68
2021/01/07 03:23:06;;;;;;;24.17;15.27;;;3.00;99.90;;;;;;5050540;28;20224;-66
2021/01/07 03:25:32;;;;;;;24.07;14.97;;;3.00;99.90;;;;;;5050836;28;20179;-67
2021/01/07 03:27:58;;;;;;;24.47;14.93;;;3.00;99.90;;;;;;5032780;28;20228;-68
2021/01/07 03:30:23;;;;;;;23.53;15.67;;;2.90;99.90;;;;;;5050712;28;20210;-67
2021/01/07 03:32:49;;;;;;;25.37;14.97;;;2.90;99.90;;;;;;5050674;28;20672;-67
2021/01/07 03:35:14;;;;;;;24.87;14.63;;;2.90;99.90;;;;;;5050314;28;20608;-68
2021/01/07 03:37:40;;;;;;;28.00;16.47;;;2.90;99.90;;;;;;5052374;28;20175;-68
2021/01/07 03:40:06;;;;;;;25.93;16.27;;;2.90;99.90;;;;;;5054546;28;20505;-67
2021/01/07 03:42:32;;;;;;;28.17;16.77;;;3.00;99.90;;;;;;5054881;28;20267;-68
2021/01/07 03:44:57;;;;;;;28.03;16.20;;;2.90;99.90;;;;;;5054827;28;21010;-65
2021/01/07 03:47:23;;;;;;;27.83;15.97;;;3.00;99.90;;;;;;5054389;28;20265;-65
2021/01/07 03:49:49;;;;;;;27.17;15.23;;;3.00;99.90;;;;;;5054638;28;20179;-67
2021/01/07 03:52:14;;;;;;;23.27;15.53;;;2.90;99.90;;;;;;5054307;28;20179;-67
2021/01/07 03:54:40;;;;;;;26.70;15.67;;;2.90;99.90;;;;;;5054437;28;20251;-66
2021/01/07 03:57:06;;;;;;;25.67;15.93;;;2.80;99.90;;;;;;5054187;28;20203;-67
2021/01/07 03:59:33;;;;;;;28.07;16.13;;;2.80;99.90;;;;;;5054128;28;20171;-65
2021/01/07 04:01:59;;;;;;;30.07;17.33;;;2.80;99.90;;;;;;5054525;28;20425;-68
2021/01/07 04:04:24;;;;;;;27.37;16.63;;;2.90;99.90;;;;;;5054027;28;20900;-65
2021/01/07 04:06:50;;;;;;;29.27;16.97;;;2.90;99.90;;;;;;5053973;28;20206;-68
2021/01/07 04:09:15;;;;;;;26.53;16.87;;;2.90;99.90;;;;;;5054115;28;20240;-66
2021/01/07 04:11:41;;;;;;;26.13;15.70;;;2.90;99.90;;;;;;5035985;28;20278;-65
2021/01/07 04:14:07;;;;;;;27.53;16.57;;;2.90;99.90;;;;;;5053325;28;20206;-66
2021/01/07 04:16:33;;;;;;;27.67;16.77;;;2.90;99.90;;;;;;5054231;28;20230;-66
2021/01/07 04:18:59;;;;;;;29.47;16.43;;;2.90;99.90;;;;;;5054405;28;20625;-67
2021/01/07 04:21:25;;;;;;;28.93;17.00;;;2.80;99.90;;;;;;5053866;28;20417;-67
2021/01/07 04:23:50;;;;;;;25.53;15.77;;;2.80;99.90;;;;;;5053862;28;20926;-67
2021/01/07 04:26:16;;;;;;;30.33;17.43;;;2.80;99.90;;;;;;5053971;28;20233;-66
2021/01/07 04:28:43;;;;;;;27.80;17.03;;;2.90;99.90;;;;;;5053749;28;20236;-66
2021/01/07 04:31:09;;;;;;;27.40;16.20;;;2.90;99.90;;;;;;5053683;28;20199;-67
2021/01/07 04:33:34;;;;;;;29.73;17.40;;;2.90;99.90;;;;;;5053865;28;20460;-65
2021/01/07 04:36:00;;;;;;;25.57;15.87;;;2.90;99.90;;;;;;5053370;28;20198;-67
2021/01/07 04:38:25;;;;;;;29.03;16.67;;;2.90;99.90;;;;;;5053777;28;20179;-65
2021/01/07 04:40:51;;;;;;;24.70;15.93;;;2.90;99.90;;;;;;5053461;28;20261;-66
2021/01/07 04:43:17;;;;;;;24.10;16.00;;;2.90;99.90;;;;;;5053529;28;20597;-65
2021/01/07 04:45:42;;;;;;;22.10;14.40;;;3.00;99.90;;;;;;5053618;28;20178;-66
2021/01/07 04:48:09;;;;;;;26.53;16.70;;;3.00;99.90;;;;;;5052863;28;20175;-66
2021/01/07 04:50:35;;;;;;;25.13;14.07;;;3.10;99.90;;;;;;5035675;28;20633;-65
2021/01/07 04:53:01;;;;;;;27.40;15.20;;;3.00;99.90;;;;;;5053251;28;20410;-66
2021/01/07 04:55:27;;;;;;;23.20;14.23;;;3.10;99.90;;;;;;5053126;28;20449;-66
2021/01/07 04:57:54;;;;;;;22.97;14.23;;;3.10;99.90;;;;;;5053389;28;20500;-65
2021/01/07 05:00:20;;;;;;;25.53;15.33;;;3.00;99.90;;;;;;5053417;28;20213;-65
2021/01/07 05:02:47;;;;;;;21.23;14.03;;;3.00;99.90;;;;;;5053097;28;20497;-66
2021/01/07 05:05:13;;;;;;;20.87;13.60;;;3.00;99.90;;;;;;5053063;28;20852;-64
2021/01/07 05:07:39;;;;;;;22.07;14.10;;;3.00;99.90;;;;;;5052931;28;20417;-64
2021/01/07 05:10:11;;;;;;;21.67;14.73;;;3.00;99.90;;;;;;5052911;28;20167;-68
2021/01/07 05:12:38;;;;;;;24.33;15.00;;;3.00;99.90;;;;;;5053045;28;20745;-66
2021/01/07 05:15:05;;;;;;;25.10;14.80;;;3.00;99.90;;;;;;5052871;28;20488;-66
2021/01/07 05:17:31;;;;;;;22.97;14.00;;;2.90;99.90;;;;;;5052765;28;20438;-65
2021/01/07 05:19:56;;;;;;;21.83;13.67;;;2.90;99.90;;;;;;5052624;28;20410;-68
2021/01/07 05:22:41;;;;;;;22.00;13.37;;;2.90;99.90;;;;;;5052656;28;20168;-65
2021/01/07 05:25:09;;;;;;;20.77;13.43;;;2.80;99.90;;;;;;5052813;28;20178;-67
2021/01/07 05:27:36;;;;;;;23.53;13.80;;;2.80;99.90;;;;;;5052791;28;20500;-68
2021/01/07 05:30:03;;;;;;;22.43;14.17;;;2.90;99.90;;;;;;5052508;28;20508;-65
2021/01/07 05:32:42;;;;;;;22.73;13.43;;;2.90;99.90;;;;;;5052385;28;20464;-68
2021/01/07 05:35:10;;;;;;;22.67;14.27;;;2.90;99.90;;;;;;5052697;28;20866;-66
2021/01/07 05:37:38;;;;;;;21.40;14.00;;;2.90;99.90;;;;;;5052584;28;20896;-67
2021/01/07 05:40:06;;;;;;;24.20;15.57;;;2.80;99.90;;;;;;5052438;28;20413;-67
2021/01/07 05:42:42;;;;;;;25.50;15.73;;;2.90;99.90;;;;;;5051082;28;20425;-63
2021/01/07 05:45:13;;;;;;;27.93;15.33;;;2.90;99.90;;;;;;5052263;28;20417;-66
2021/01/07 05:47:39;;;;;;;25.50;17.23;;;3.00;99.90;;;;;;5051683;28;20410;-65
2021/01/07 05:50:06;;;;;;;23.13;15.07;;;2.90;99.90;;;;;;5052294;28;20406;-67
2021/01/07 05:52:33;;;;;;;22.87;14.10;;;2.90;99.90;;;;;;5052326;28;20504;-67
2021/01/07 05:55:02;;;;;;;26.03;16.30;;;2.90;99.90;;;;;;5051938;28;20760;-67
2021/01/07 05:57:29;;;;;;;25.83;15.53;;;2.90;99.90;;;;;;5052053;28;20448;-67
2021/01/07 05:59:56;;;;;;;22.10;13.70;;;3.00;99.90;;;;;;5050316;28;20417;-66
2021/01/07 06:02:23;;;;;;;25.13;15.67;;;3.00;99.90;;;;;;5051744;28;20448;-67
2021/01/07 06:04:51;;;;;;;24.43;14.73;;;3.00;99.90;;;;;;5052035;28;20417;-65
2021/01/07 06:07:17;;;;;;;24.90;15.13;;;2.90;99.90;;;;;;5051663;28;20508;-65
2021/01/07 06:09:46;;;;;;;28.37;17.17;;;3.00;99.90;;;;;;5051874;28;20456;-65
2021/01/07 06:12:13;;;;;;;27.87;16.33;;;2.90;99.90;;;;;;5051648;28;20194;-67
2021/01/07 06:14:45;;;;;;;23.00;15.43;;;2.90;99.90;;;;;;5052048;28;20452;-67
2021/01/07 06:17:12;;;;;;;24.83;14.43;;;2.80;99.90;;;;;;5051769;28;20452;-66
2021/01/07 06:19:42;;;;;;;24.93;15.17;;;2.80;99.90;;;;;;5051753;28;20463;-68
2021/01/07 06:22:16;;;;;;;34.77;18.00;;;2.80;99.90;;;;;;5051547;28;20931;-66
2021/01/07 06:24:44;;;;;;;25.63;15.80;;;2.70;99.90;;;;;;5051478;28;20420;-67
2021/01/07 06:27:20;;;;;;;24.57;15.53;;;2.60;99.90;;;;;;5051778;28;20769;-65
2021/01/07 06:29:46;;;;;;;23.90;14.83;;;2.60;99.90;;;;;;5051326;28;20447;-68
2021/01/07 06:32:12;;;;;;;24.23;15.47;;;2.50;99.90;;;;;;5051624;28;20509;-67
2021/01/07 06:34:39;;;;;;;25.37;15.03;;;2.50;99.90;;;;;;5051619;28;20186;-68
2021/01/07 06:37:05;;;;;;;22.27;12.43;;;2.40;99.90;;;;;;5050038;28;20457;-67
2021/01/07 06:39:40;;;;;;;28.23;15.10;;;2.40;99.90;;;;;;5051306;28;20417;-66
2021/01/07 06:42:06;;;;;;;24.50;14.93;;;2.30;99.90;;;;;;5050982;28;20413;-67
2021/01/07 06:44:32;;;;;;;33.30;16.30;;;2.30;99.90;;;;;;5051140;28;20417;-64
2021/01/07 06:46:58;;;;;;;27.20;16.17;;;2.20;99.90;;;;;;5051052;28;20428;-67
2021/01/07 06:49:28;;;;;;;29.87;16.57;;;2.20;99.90;;;;;;5050929;28;20586;-64
2021/01/07 06:52:05;;;;;;;32.13;16.03;;;2.10;99.90;;;;;;5050829;28;20522;-65
2021/01/07 06:54:34;;;;;;;28.67;16.63;;;2.10;99.90;;;;;;5051024;28;20504;-66
2021/01/07 06:57:03;;;;;;;26.60;15.17;;;2.00;99.90;;;;;;5050780;28;20548;-65
2021/01/07 06:59:29;;;;;;;25.70;16.57;;;2.00;99.90;;;;;;5050862;28;20409;-67
2021/01/07 07:01:57;;;;;;;27.73;16.30;;;2.10;99.90;;;;;;5050874;28;20841;-67
2021/01/07 07:04:33;;;;;;;24.97;14.97;;;2.10;99.90;;;;;;5050910;28;20552;-66
2021/01/07 07:07:09;;;;;;;32.47;17.67;;;2.10;99.90;;;;;;5049681;28;20754;-67
2021/01/07 07:09:40;;;;;;;28.97;16.27;;;2.10;99.90;;;;;;5050271;28;20560;-67
2021/01/07 07:12:06;;;;;;;27.80;16.73;;;2.10;99.90;;;;;;5051050;28;20425;-65
2021/01/07 07:14:32;;;;;;;26.80;15.77;;;2.10;99.90;;;;;;5050936;28;20540;-66
2021/01/07 07:17:05;;;;;;;24.70;15.70;;;2.10;99.90;;;;;;5050305;28;20465;-66
2021/01/07 07:19:31;;;;;;;24.10;15.00;;;2.00;99.90;;;;;;5050760;28;20410;-66
2021/01/07 07:22:00;;;;;;;24.17;14.53;;;2.00;99.90;;;;;;5050601;28;20416;-65
2021/01/07 07:24:49;;;;;;;26.47;15.50;;;2.00;99.90;;;;;;5050735;28;20206;-66
2021/01/07 07:27:15;;;;;;;23.27;14.40;;;2.00;99.90;;;;;;5049974;28;20410;-65
2021/01/07 07:29:45;;;;;;;25.13;15.00;;;2.00;99.90;;;;;;5050901;28;20424;-66
2021/01/07 07:32:29;;;;;;;26.90;14.57;;;2.00;99.90;;;;;;5050862;28;20500;-67
2021/01/07 07:34:55;;;;;;;26.53;16.03;;;2.00;99.90;;;;;;5050312;28;20429;-66
2021/01/07 07:37:24;;;;;;;26.73;14.53;;;2.10;99.90;;;;;;5050565;28;20460;-68
2021/01/07 07:39:50;;;;;;;24.90;14.47;;;2.00;99.90;;;;;;5050407;28;20414;-67
2021/01/07 07:42:17;;;;;;;26.00;15.43;;;2.00;99.90;;;;;;5050559;28;20491;-65
2021/01/07 07:44:43;;;;;;;26.87;15.43;;;2.00;99.90;;;;;;5050487;28;20852;-67
2021/01/07 07:47:09;;;;;;;29.00;16.43;;;2.00;99.90;;;;;;5050372;28;20422;-66
2021/01/07 07:49:34;;;;;;;27.93;15.73;;;2.00;99.90;;;;;;5050323;28;20425;-67
2021/01/07 07:52:00;;;;;;;28.10;16.17;;;2.00;99.90;;;;;;5049861;28;20178;-66
2021/01/07 07:54:26;;;;;;;27.80;15.93;;;1.90;99.90;;;;;;5050235;28;20183;-66
2021/01/07 07:56:59;;;;;;;30.37;15.30;;;2.10;99.90;;;;;;5050050;28;20197;-66
2021/01/07 07:59:25;;;;;;;26.23;15.00;;;2.10;99.90;;;;;;5050451;28;20655;-64
2021/01/07 08:01:53;;;;;;;26.30;15.80;;;2.10;99.90;;;;;;5050302;28;20409;-64
2021/01/07 08:04:21;;;;;;;27.93;15.63;;;2.20;99.90;;;;;;5050171;28;20521;-66
2021/01/07 08:06:48;;;;;;;28.60;15.83;;;2.20;99.90;;;;;;5049530;28;20833;-65
2021/01/07 08:09:18;;;;;;;30.07;16.17;;;2.20;99.90;;;;;;5050044;28;20539;-64
2021/01/07 08:11:54;;;;;;;27.97;16.57;;;2.20;99.90;;;;;;5050332;28;21899;-67
2021/01/07 08:14:28;;;;;;;29.67;16.60;;;2.30;99.90;;;;;;5045662;28;20446;-66
2021/01/07 08:16:58;;;;;;;26.57;16.27;;;2.40;99.90;;;;;;5030140;28;21002;-65
2021/01/07 08:19:31;;;;;;;29.50;17.03;;;2.40;99.90;;;;;;5030164;28;20407;-65
2021/01/07 08:21:57;;;;;;;31.50;17.17;;;2.50;99.90;;;;;;5030047;28;20433;-65
2021/01/07 08:24:24;;;;;;;28.73;15.87;;;2.50;99.90;;;;;;5032473;28;20465;-67
2021/01/07 08:27:16;;;;;;;24.77;15.93;;;2.60;99.90;;;;;;5035603;28;20453;-66
2021/01/07 08:29:55;;;;;;;27.63;16.77;;;2.60;99.90;;;;;;5053332;28;20429;-65
2021/01/07 08:32:24;;;;;;;24.70;14.90;;;2.70;99.90;;;;;;5053768;28;20420;-67
2021/01/07 08:34:50;;;;;;;26.77;15.50;;;2.70;99.90;;;;;;5053603;28;20464;-65
2021/01/07 08:37:31;;;;;;;25.97;16.47;;;2.80;99.90;;;;;;5053598;28;20464;-65
2021/01/07 08:40:07;;;;;;;25.93;15.47;;;2.80;99.90;;;;;;5053231;28;20766;-67
2021/01/07 08:42:42;;;;;;;25.93;15.93;;;2.90;99.90;;;;;;5053537;28;20412;-67
2021/01/07 08:45:09;;;;;;;28.30;16.67;;;3.00;99.90;;;;;;5053301;28;20884;-66
2021/01/07 08:47:41;;;;;;;29.30;17.53;;;3.00;99.90;;;;;;5053189;28;20492;-65
2021/01/07 08:50:13;;;;;;;28.73;16.93;;;3.10;99.90;;;;;;5052954;28;20445;-65
2021/01/07 08:52:51;;;;;;;31.90;19.17;;;3.20;99.90;;;;;;5053026;28;20478;-65
2021/01/07 08:55:18;;;;;;;28.60;16.87;;;3.10;99.90;;;;;;5053656;28;20413;-67
2021/01/07 08:57:44;;;;;;;32.63;17.40;;;3.10;99.90;;;;;;5053354;28;20484;-67
2021/01/07 09:00:17;;;;;;;29.90;15.27;;;3.10;99.90;;;;;;5053187;28;20414;-64
2021/01/07 09:02:42;;;;;;;25.53;16.00;;;3.10;99.90;;;;;;5053290;28;20171;-65
2021/01/07 09:05:09;;;;;;;26.90;15.87;;;3.20;99.90;;;;;;5052834;28;20596;-66
2021/01/07 09:07:35;;;;;;;27.10;15.03;;;3.20;99.90;;;;;;5053298;28;20175;-65
2021/01/07 09:10:01;;;;;;;28.17;16.40;;;3.20;99.90;;;;;;5052945;28;21148;-66
2021/01/07 09:12:34;;;;;;;25.63;16.00;;;3.20;99.90;;;;;;5052913;28;20263;-67
2021/01/07 09:15:23;;;;;;;26.23;15.47;;;3.30;99.90;;;;;;5035368;28;20527;-67
2021/01/07 09:17:55;;;;;;;26.90;16.13;;;3.30;99.90;;;;;;5052892;28;20846;-65
2021/01/07 09:20:32;;;;;;;27.23;15.43;;;3.50;99.90;;;;;;5052502;28;20475;-67
2021/01/07 09:23:09;;;;;;;28.60;16.20;;;3.60;99.90;;;;;;5052947;28;20420;-66
2021/01/07 09:25:36;;;;;;;26.33;12.97;;;3.60;99.90;;;;;;5052519;28;20421;-68
2021/01/07 09:28:03;;;;;;;24.70;15.30;;;3.70;99.90;;;;;;5052826;28;20418;-68
2021/01/07 09:30:29;;;;;;;24.20;15.47;;;3.70;99.90;;;;;;5052289;28;20414;-67
2021/01/07 09:32:56;;;;;;;25.00;15.10;;;3.60;99.90;;;;;;5052839;28;20840;-66
2021/01/07 09:35:22;;;;;;;23.93;15.47;;;3.60;99.90;;;;;;5051119;28;20537;-65
2021/01/07 09:37:48;;;;;;;28.87;17.30;;;3.50;99.90;;;;;;5052556;28;20919;-67
2021/01/07 09:40:14;;;;;;;27.60;16.13;;;3.50;99.90;;;;;;5052100;28;20413;-66
2021/01/07 09:42:40;;;;;;;25.27;15.17;;;3.50;99.90;;;;;;5052533;28;20174;-66
2021/01/07 09:45:10;;;;;;;25.37;15.33;;;3.50;99.90;;;;;;5052503;28;20171;-66
2021/01/07 09:47:36;;;;;;;26.03;15.70;;;3.50;99.90;;;;;;5052483;28;20632;-67
2021/01/07 09:50:07;;;;;;;25.67;15.83;;;3.70;99.90;;;;;;5052250;28;20516;-65
2021/01/07 09:52:36;;;;;;;27.07;15.67;;;3.70;99.90;;;;;;5052257;28;20424;-66
2021/01/07 09:55:04;;;;;;;24.13;14.00;;;3.70;99.90;;;;;;5052120;28;20425;-68
2021/01/07 09:57:30;;;;;;;25.53;15.50;;;3.80;99.90;;;;;;5052349;28;20744;-68
2021/01/07 09:59:55;;;;;;;26.00;15.13;;;3.80;99.90;;;;;;5052025;28;20423;-66
2021/01/07 10:02:28;;;;;;;25.90;15.13;;;3.70;99.90;;;;;;5031907;28;20219;-67
2021/01/07 10:04:54;;;;;;;26.53;15.63;;;3.80;99.90;;;;;;5031766;28;20414;-66
2021/01/07 10:07:19;;;;;;;26.40;14.83;;;3.90;99.90;;;;;;5032230;28;20183;-67
2021/01/07 10:09:45;;;;;;;27.67;16.57;;;3.90;99.90;;;;;;5031597;28;21816;-66
2021/01/07 10:12:10;;;;;;;21.73;14.83;;;3.90;99.90;;;;;;5032114;28;20207;-66
2021/01/07 10:14:49;;;;;;;27.00;16.23;;;3.90;99.90;;;;;;5032082;28;20617;-66
2021/01/07 10:17:15;;;;;;;25.53;14.80;;;4.10;99.90;;;;;;5014005;28;20311;-67
2021/01/07 10:19:40;;;;;;;21.27;12.27;;;4.20;99.90;;;;;;5031702;28;20517;-66
2021/01/07 10:22:14;;;;;;;24.27;13.50;;;4.10;99.90;;;;;;5031285;28;20587;-67
2021/01/07 10:24:48;;;;;;;21.53;14.17;;;4.10;99.90;;;;;;5031976;28;20530;-66
2021/01/07 10:27:16;;;;;;;21.17;12.80;;;3.90;99.90;;;;;;5031566;28;20479;-67
2021/01/07 10:29:43;;;;;;;22.63;13.03;;;4.00;99.90;;;;;;5031592;28;20430;-67
2021/01/07 10:32:08;;;;;;;23.40;14.83;;;4.00;99.90;;;;;;5031573;28;20422;-66
2021/01/07 10:34:44;;;;;;;24.07;13.83;;;4.00;99.90;;;;;;5031426;28;20796;-68
2021/01/07 10:37:12;;;;;;;20.57;12.73;;;4.10;99.90;;;;;;5016953;28;20244;-65
2021/01/07 10:39:39;;;;;;;22.53;13.43;;;4.10;99.90;;;;;;5051444;28;20496;-65
2021/01/07 10:42:08;;;;;;;20.57;12.97;;;4.10;99.90;;;;;;5051054;28;20765;-65
2021/01/07 10:44:35;;;;;;;19.60;12.27;;;4.10;99.90;;;;;;5051191;28;20506;-68
2021/01/07 10:47:05;;;;;;;20.63;12.53;;;4.00;99.90;;;;;;5050822;28;20915;-67
2021/01/07 10:49:32;;;;;;;20.00;11.80;;;4.10;99.90;;;;;;5051143;28;20418;-67
2021/01/07 10:52:07;;;;;;;20.63;12.03;;;4.20;99.90;;;;;;5050982;28;20432;-65
2021/01/07 10:54:48;;;;;;;16.27;11.23;;;4.20;99.90;;;;;;5051010;28;20419;-68
2021/01/07 10:57:36;;;;;;;16.43;10.37;;;4.20;99.90;;;;;;5050845;28;20449;-65
2021/01/07 11:00:05;;;;;;;15.70;10.03;;;4.20;99.90;;;;;;5051298;28;20414;-69
2021/01/07 11:03:12;;;;;;;17.33;11.37;;;4.20;99.90;;;;;;5050875;28;20406;-64
2021/01/07 11:05:42;;;;;;;17.67;10.53;;;4.30;99.90;;;;;;5050859;28;20425;-65
2021/01/07 11:08:34;;;;;;;15.80;9.80;;;4.30;99.90;;;;;;5050969;28;20791;-66
2021/01/07 11:11:09;;;;;;;17.27;9.37;;;4.30;99.90;;;;;;5050309;28;20923;-66
2021/01/07 11:14:30;;;;;;;14.87;9.63;;;4.40;99.90;;;;;;5050668;28;20409;-66
2021/01/07 11:17:05;;;;;;;13.60;8.53;;;4.40;99.90;;;;;;5011274;28;20457;-67
2021/01/07 11:19:32;;;;;;;19.73;10.60;;;4.50;99.90;;;;;;5050772;28;20499;-68
2021/01/07 11:22:04;;;;;;;17.50;10.73;;;4.50;99.90;;;;;;5050701;28;20429;-67
2021/01/07 11:24:31;;;;;;;16.07;9.90;;;4.50;99.90;;;;;;5050562;28;20406;-67
2021/01/07 11:26:58;;;;;;;18.10;11.03;;;4.50;99.90;;;;;;5050399;28;20421;-66
2021/01/07 11:29:25;;;;;;;18.43;11.03;;;4.50;99.90;;;;;;5050741;28;20832;-67
2021/01/07 11:31:53;;;;;;;16.23;10.37;;;4.50;99.90;;;;;;5050832;28;20414;-65
2021/01/07 11:34:20;;;;;;;15.73;10.33;;;4.50;99.90;;;;;;5050403;28;20437;-66
2021/01/07 11:37:00;;;;;;;15.97;10.60;;;4.50;99.90;;;;;;5050724;28;20457;-66
2021/01/07 11:39:40;;;;;;;16.77;10.67;;;4.60;99.90;;;;;;5032249;28;20421;-65
2021/01/07 11:42:22;;;;;;;19.63;12.27;;;4.70;99.90;;;;;;5049792;28;20421;-69
2021/01/07 11:45:12;;;;;;;16.97;10.43;;;4.80;99.90;;;;;;5050448;28;20949;-67
2021/01/07 11:48:07;;;;;;;24.77;12.87;;;4.80;99.90;;;;;;5050742;28;20467;-66
2021/01/07 11:50:37;;;;;;;14.97;10.17;;;4.90;99.90;;;;;;5050382;28;20440;-65
2021/01/07 11:53:05;;;;;;;14.47;10.00;;;4.90;99.90;;;;;;5050570;28;20425;-68
2021/01/07 11:55:35;;;;;;;17.90;9.67;;;4.90;99.90;;;;;;5050171;28;20457;-66
2021/01/07 11:58:01;;;;;;;17.77;10.67;;;4.90;99.90;;;;;;5051026;28;20924;-66
2021/01/07 12:00:27;;;;;;;14.00;9.57;;;4.90;99.90;;;;;;5054524;28;20922;-65
2021/01/07 12:02:55;;;;;;;14.93;9.57;;;4.80;99.90;;;;;;5054505;28;20420;-67
2021/01/07 12:05:22;;;;;;;14.70;9.37;;;4.90;99.90;;;;;;5054766;28;20471;-65
2021/01/07 12:08:03;;;;;;;14.40;8.90;;;4.80;99.70;;;;;;5053959;28;20413;-64
2021/01/07 12:10:40;;;;;;;16.03;9.23;;;4.80;99.90;;;;;;5053933;28;20825;-65
2021/01/07 12:13:48;;;;;;;12.23;7.30;;;4.70;99.90;;;;;;5054287;28;20466;-68
2021/01/07 12:16:22;;;;;;;10.70;7.30;;;4.70;99.60;;;;;;5053855;28;20461;-68
2021/01/07 12:18:51;;;;;;;15.63;8.17;;;4.60;99.80;;;;;;5053917;28;20409;-67
2021/01/07 12:21:19;;;;;;;13.83;8.87;;;4.60;99.90;;;;;;5053915;28;20410;-64
2021/01/07 12:23:46;;;;;;;13.80;8.40;;;4.50;99.90;;;;;;5053950;28;20488;-66
2021/01/07 12:26:14;;;;;;;16.27;9.10;;;4.50;99.90;;;;;;5053666;28;20426;-65
2021/01/07 12:28:42;;;;;;;14.90;9.13;;;4.40;99.90;;;;;;5054150;28;20418;-64
2021/01/07 12:31:09;;;;;;;16.00;10.13;;;4.50;99.90;;;;;;5035869;28;20429;-64
2021/01/07 12:33:41;;;;;;;18.53;9.93;;;4.40;99.90;;;;;;5053960;28;20452;-65
2021/01/07 12:36:37;;;;;;;16.00;8.13;;;4.40;99.90;;;;;;5053535;28;20974;-66
2021/01/07 12:39:20;;;;;;;23.57;9.67;;;4.40;99.70;;;;;;5053587;28;20414;-66
2021/01/07 12:41:51;;;;;;;12.90;7.90;;;4.40;99.90;;;;;;5053838;28;20481;-65
2021/01/07 12:44:20;;;;;;;14.20;9.40;;;4.50;99.90;;;;;;5053511;28;20457;-64
2021/01/07 12:46:47;;;;;;;13.87;7.87;;;4.50;99.90;;;;;;5053678;28;20413;-66